createdAt,value
2022-12-16T00:01:24.548Z,21.73
2022-12-16T00:03:54.975Z,20.40
2022-12-16T00:06:25.588Z,20.17
2022-12-16T00:08:55.027Z,18.83
2022-12-16T00:11:24.477Z,20.97
2022-12-16T00:13:52.605Z,22.20
2022-12-16T00:16:22.747Z,22.33
2022-12-16T00:18:51.844Z,20.60
2022-12-16T00:21:20.462Z,22.30
2022-12-16T00:23:48.797Z,21.67
2022-12-16T00:26:17.076Z,21.23
2022-12-16T00:28:46.461Z,20.80
2022-12-16T00:31:14.648Z,21.50
2022-12-16T00:33:42.923Z,20.63
2022-12-16T00:36:11.525Z,20.47
2022-12-16T00:38:39.594Z,21.73
2022-12-16T00:41:08.091Z,22.50
2022-12-16T00:43:36.495Z,20.10
2022-12-16T00:46:06.304Z,21.30
2022-12-16T00:48:34.389Z,20.83
2022-12-16T00:51:02.397Z,19.97
2022-12-16T00:53:31.022Z,21.47
2022-12-16T00:56:06.296Z,20.50
2022-12-16T00:58:34.428Z,19.77
2022-12-16T01:01:03.230Z,22.93
2022-12-16T01:03:32.861Z,22.20
2022-12-16T01:06:01.052Z,20.00
2022-12-16T01:08:29.420Z,21.57
2022-12-16T01:10:58.676Z,21.70
2022-12-16T01:13:26.934Z,23.03
2022-12-16T01:15:55.170Z,24.70
2022-12-16T01:18:23.209Z,24.07
2022-12-16T01:20:52.571Z,23.83
2022-12-16T01:23:22.858Z,21.77
2022-12-16T01:25:54.641Z,24.47
2022-12-16T01:28:23.063Z,23.00
2022-12-16T01:30:55.508Z,23.03
2022-12-16T01:33:23.646Z,23.20
2022-12-16T01:36:00.181Z,22.00
2022-12-16T01:38:28.163Z,22.07
2022-12-16T01:40:56.256Z,23.33
2022-12-16T01:43:27.248Z,23.90
2022-12-16T01:46:00.240Z,22.63
2022-12-16T01:48:43.410Z,19.70
2022-12-16T01:51:17.488Z,24.90
2022-12-16T01:53:47.676Z,22.30
2022-12-16T01:56:18.270Z,24.27
2022-12-16T01:58:46.992Z,22.60
2022-12-16T02:01:16.886Z,24.57
2022-12-16T02:03:45.685Z,24.87
2022-12-16T02:06:15.047Z,23.40
2022-12-16T02:08:43.074Z,24.80
2022-12-16T02:11:29.401Z,21.63
2022-12-16T02:14:13.549Z,23.43
2022-12-16T02:16:51.583Z,21.13
2022-12-16T02:19:44.357Z,24.27
2022-12-16T02:22:25.509Z,26.30
2022-12-16T02:25:22.990Z,26.23
2022-12-16T02:27:59.666Z,24.93
2022-12-16T02:31:00.802Z,24.13
2022-12-16T02:34:03.152Z,23.83
2022-12-16T02:36:47.550Z,24.47
2022-12-16T02:39:21.614Z,23.40
2022-12-16T02:41:54.753Z,22.57
2022-12-16T02:44:32.240Z,22.43
2022-12-16T02:47:01.669Z,23.07
2022-12-16T02:49:50.556Z,22.47
2022-12-16T02:52:22.761Z,21.80
2022-12-16T02:54:53.565Z,22.67
2022-12-16T02:57:46.997Z,22.33
2022-12-16T03:00:18.277Z,22.13
2022-12-16T03:02:55.447Z,21.90
2022-12-16T03:05:27.244Z,22.97
2022-12-16T03:07:58.865Z,23.43
2022-12-16T03:10:31.973Z,24.20
2022-12-16T03:13:02.440Z,23.40
2022-12-16T03:15:33.909Z,24.07
2022-12-16T03:18:06.484Z,22.90
2022-12-16T03:20:38.082Z,24.30
2022-12-16T03:23:16.251Z,23.97
2022-12-16T03:25:46.800Z,22.53
2022-12-16T03:28:27.388Z,23.87
2022-12-16T03:31:02.800Z,25.33
2022-12-16T03:33:37.858Z,23.43
2022-12-16T03:36:11.454Z,25.37
2022-12-16T03:38:41.687Z,23.50
2022-12-16T03:41:10.364Z,23.03
2022-12-16T03:43:39.405Z,24.40
2022-12-16T03:46:09.177Z,24.10
2022-12-16T03:48:47.321Z,23.43
2022-12-16T03:51:16.051Z,24.73
2022-12-16T03:53:44.951Z,23.87
2022-12-16T03:56:13.764Z,23.33
2022-12-16T03:58:41.793Z,24.60
2022-12-16T04:01:10.531Z,24.23
2022-12-16T04:03:40.073Z,25.03
2022-12-16T04:06:08.677Z,26.13
2022-12-16T04:08:36.687Z,25.73
2022-12-16T04:11:22.085Z,23.50
2022-12-16T04:14:07.653Z,26.83
2022-12-16T04:16:54.262Z,25.17
2022-12-16T04:19:45.161Z,25.90
2022-12-16T04:22:33.399Z,23.30
2022-12-16T04:25:07.362Z,26.33
2022-12-16T04:27:36.417Z,24.83
2022-12-16T04:30:20.317Z,23.10
2022-12-16T04:33:09.437Z,23.90
2022-12-16T04:35:56.596Z,21.43
2022-12-16T04:38:42.202Z,24.53
2022-12-16T04:41:27.659Z,26.70
2022-12-16T04:44:13.317Z,27.73
2022-12-16T04:46:59.089Z,28.27
2022-12-16T04:49:44.722Z,25.47
2022-12-16T04:52:31.416Z,31.13
2022-12-16T04:55:16.697Z,31.47
2022-12-16T04:58:03.119Z,26.83
2022-12-16T05:00:48.732Z,28.60
2022-12-16T05:03:34.458Z,26.17
2022-12-16T05:06:20.412Z,26.63
2022-12-16T05:09:03.670Z,25.67
2022-12-16T05:11:49.287Z,25.17
2022-12-16T05:14:34.664Z,24.70
2022-12-16T05:17:20.194Z,24.87
2022-12-16T05:20:05.601Z,24.60
2022-12-16T05:22:51.422Z,25.30
2022-12-16T05:25:38.294Z,25.40
2022-12-16T05:28:24.609Z,24.77
2022-12-16T05:31:10.355Z,25.83
2022-12-16T05:33:56.269Z,26.27
2022-12-16T05:36:41.795Z,25.17
2022-12-16T05:39:27.772Z,23.77
2022-12-16T05:42:15.173Z,26.00
2022-12-16T05:45:00.468Z,25.30
2022-12-16T05:47:46.063Z,24.60
2022-12-16T05:50:31.373Z,21.43
2022-12-16T05:53:26.996Z,27.47
2022-12-16T05:56:12.221Z,27.13
2022-12-16T05:58:59.060Z,26.90
2022-12-16T06:01:44.928Z,25.57
2022-12-16T06:04:30.342Z,26.10
2022-12-16T06:07:15.820Z,25.23
2022-12-16T06:10:02.160Z,26.50
2022-12-16T06:12:47.714Z,26.23
2022-12-16T06:15:34.496Z,25.03
2022-12-16T06:18:19.772Z,25.67
2022-12-16T06:21:05.277Z,22.53
2022-12-16T06:23:50.845Z,25.03
2022-12-16T06:26:36.327Z,26.10
2022-12-16T06:29:21.814Z,23.90
2022-12-16T06:32:08.588Z,24.80
2022-12-16T06:34:54.182Z,23.27
2022-12-16T06:37:39.873Z,22.83
2022-12-16T06:40:26.638Z,23.20
2022-12-16T06:43:23.577Z,25.47
2022-12-16T06:46:08.920Z,24.80
2022-12-16T06:48:55.649Z,25.70
2022-12-16T06:51:40.886Z,24.40
2022-12-16T06:54:26.749Z,24.23
2022-12-16T06:57:12.332Z,21.60
2022-12-16T06:59:57.519Z,24.70
2022-12-16T07:02:43.009Z,24.30
2022-12-16T07:05:41.188Z,23.83
2022-12-16T07:08:26.601Z,24.07
2022-12-16T07:11:16.887Z,23.63
2022-12-16T07:14:05.272Z,25.50
2022-12-16T07:16:50.845Z,22.67
2022-12-16T07:19:36.421Z,23.70
2022-12-16T07:22:23.297Z,24.50
2022-12-16T07:25:09.205Z,22.60
2022-12-16T07:27:54.621Z,20.60
2022-12-16T07:30:39.909Z,22.23
2022-12-16T07:33:25.328Z,22.97
2022-12-16T07:36:10.673Z,24.03
2022-12-16T07:38:57.350Z,22.23
2022-12-16T07:41:42.654Z,23.83
2022-12-16T07:44:28.897Z,24.60
2022-12-16T07:47:28.789Z,23.83
2022-12-16T07:50:13.988Z,22.27
2022-12-16T07:52:59.468Z,23.20
2022-12-16T07:55:46.149Z,21.27
2022-12-16T07:58:31.649Z,23.20
2022-12-16T08:01:17.076Z,23.47
2022-12-16T08:04:02.396Z,23.67
2022-12-16T08:06:47.813Z,23.47
2022-12-16T08:09:33.048Z,23.30
2022-12-16T08:12:19.836Z,23.80
2022-12-16T08:15:05.505Z,25.23
2022-12-16T08:17:51.129Z,23.67
2022-12-16T08:20:38.082Z,24.23
2022-12-16T08:23:23.628Z,23.50
2022-12-16T08:26:09.329Z,23.23
2022-12-16T08:29:02.020Z,23.93
2022-12-16T08:32:11.089Z,21.83
2022-12-16T08:34:56.440Z,23.33
2022-12-16T08:37:53.491Z,22.43
2022-12-16T08:40:39.346Z,25.77
2022-12-16T08:43:24.830Z,25.47
2022-12-16T08:46:14.039Z,26.97
2022-12-16T08:48:59.903Z,26.83
2022-12-16T08:51:45.652Z,24.13
2022-12-16T08:54:42.678Z,26.60
2022-12-16T08:57:28.080Z,25.93
2022-12-16T09:00:13.708Z,26.37
2022-12-16T09:03:00.769Z,24.70
2022-12-16T09:05:46.341Z,24.37
2022-12-16T09:08:32.213Z,24.90
2022-12-16T09:11:19.609Z,24.77
2022-12-16T09:14:05.345Z,20.97
2022-12-16T09:16:50.615Z,20.90
2022-12-16T09:19:38.528Z,23.53
2022-12-16T09:22:24.125Z,23.90
2022-12-16T09:25:09.575Z,21.50
2022-12-16T09:27:54.921Z,24.13
2022-12-16T09:30:40.697Z,24.60
2022-12-16T09:33:25.320Z,21.90
2022-12-16T09:36:11.998Z,24.03
2022-12-16T09:38:57.669Z,25.13
2022-12-16T09:41:56.306Z,28.10
2022-12-16T09:44:49.976Z,25.93
2022-12-16T09:47:43.148Z,27.93
2022-12-16T09:50:40.424Z,26.53
2022-12-16T09:53:32.153Z,24.97
2022-12-16T09:56:19.519Z,25.00
2022-12-16T09:59:15.451Z,26.17
2022-12-16T10:02:03.324Z,27.80
2022-12-16T10:04:49.578Z,27.57
2022-12-16T10:07:38.054Z,27.63
2022-12-16T10:10:33.396Z,29.40
2022-12-16T10:13:26.188Z,25.47
2022-12-16T10:16:18.036Z,24.77
2022-12-16T10:19:13.536Z,24.80
2022-12-16T10:22:09.467Z,26.80
2022-12-16T10:25:05.939Z,28.27
2022-12-16T10:28:00.634Z,28.63
2022-12-16T10:30:48.246Z,30.93
2022-12-16T10:33:35.706Z,30.60
2022-12-16T10:36:22.207Z,30.27
2022-12-16T10:39:10.989Z,29.67
2022-12-16T10:41:59.865Z,28.90
2022-12-16T10:44:52.829Z,27.63
2022-12-16T10:47:39.084Z,27.73
2022-12-16T10:50:27.086Z,26.53
2022-12-16T10:53:17.235Z,27.60
2022-12-16T10:56:16.156Z,27.27
2022-12-16T10:59:09.254Z,28.37
2022-12-16T11:01:56.057Z,29.33
2022-12-16T11:04:49.785Z,28.40
2022-12-16T11:07:48.536Z,28.40
2022-12-16T11:10:53.798Z,25.67
2022-12-16T11:13:44.304Z,29.10
2022-12-16T11:16:35.489Z,28.23
2022-12-16T11:19:23.051Z,29.07
2022-12-16T11:22:13.894Z,29.03
2022-12-16T11:24:59.668Z,27.70
2022-12-16T11:27:45.654Z,27.47
2022-12-16T11:30:37.272Z,29.80
2022-12-16T11:33:31.786Z,28.40
2022-12-16T11:36:25.988Z,26.17
2022-12-16T11:39:11.869Z,28.40
2022-12-16T11:42:00.312Z,27.60
2022-12-16T11:44:50.583Z,26.47
2022-12-16T11:47:45.213Z,29.27
2022-12-16T11:50:35.961Z,29.10
2022-12-16T11:53:22.401Z,27.50
2022-12-16T11:56:15.944Z,30.17
2022-12-16T11:59:06.285Z,29.60
2022-12-16T12:01:55.526Z,28.60
2022-12-16T12:04:41.461Z,30.03
2022-12-16T12:07:44.965Z,29.50
2022-12-16T12:10:57.304Z,28.10
2022-12-16T12:13:59.288Z,25.30
2022-12-16T12:16:50.504Z,27.67
2022-12-16T12:19:43.956Z,29.90
2022-12-16T12:22:38.616Z,28.00
2022-12-16T12:25:30.529Z,28.07
2022-12-16T12:28:28.061Z,26.70
2022-12-16T12:31:20.839Z,28.27
2022-12-16T12:34:18.922Z,27.90
2022-12-16T12:37:11.970Z,27.27
2022-12-16T12:40:04.926Z,27.77
2022-12-16T12:42:56.340Z,26.93
2022-12-16T12:46:06.319Z,28.67
2022-12-16T12:48:57.918Z,26.73
2022-12-16T12:51:54.585Z,26.47
2022-12-16T12:54:49.640Z,25.67
2022-12-16T12:57:39.768Z,28.80
2022-12-16T13:00:33.810Z,28.87
2022-12-16T13:03:26.561Z,29.37
2022-12-16T13:06:13.730Z,28.53
2022-12-16T13:09:13.608Z,30.07
2022-12-16T13:12:37.701Z,28.40
2022-12-16T13:15:25.467Z,28.13
2022-12-16T13:18:50.341Z,27.73
2022-12-16T13:22:02.993Z,28.53
2022-12-16T13:24:57.787Z,28.30
2022-12-16T13:27:44.387Z,30.07
2022-12-16T13:30:42.767Z,30.97
2022-12-16T13:33:42.433Z,39.72
2022-12-16T13:36:29.437Z,31.87
2022-12-16T13:39:24.484Z,29.73
2022-12-16T13:42:17.968Z,29.37
2022-12-16T13:45:34.444Z,29.07
2022-12-16T13:48:23.328Z,26.97
2022-12-16T13:51:18.125Z,27.97
2022-12-16T13:54:08.208Z,28.67
2022-12-16T13:57:00.467Z,29.23
2022-12-16T13:59:50.927Z,30.37
2022-12-16T14:02:45.491Z,30.53
2022-12-16T14:05:40.496Z,29.23
2022-12-16T14:08:33.292Z,28.70
2022-12-16T14:11:22.504Z,31.57
2022-12-16T14:14:16.749Z,30.60
2022-12-16T14:17:10.367Z,30.83
2022-12-16T14:20:12.858Z,29.10
2022-12-16T14:23:10.852Z,32.27
2022-12-16T14:26:03.957Z,33.13
2022-12-16T14:28:52.016Z,33.90
2022-12-16T14:31:41.139Z,34.50
2022-12-16T14:34:33.558Z,35.47
2022-12-16T14:37:23.908Z,32.13
2022-12-16T14:40:11.277Z,32.47
2022-12-16T14:42:59.409Z,31.07
2022-12-16T14:45:48.177Z,34.63
2022-12-16T14:48:49.181Z,34.27
2022-12-16T14:51:43.402Z,33.53
2022-12-16T14:54:36.443Z,36.13
2022-12-16T14:57:22.316Z,34.83
2022-12-16T15:00:19.451Z,35.70
2022-12-16T15:03:08.156Z,35.80
2022-12-16T15:05:57.126Z,35.43
2022-12-16T15:08:43.684Z,37.23
2022-12-16T15:11:33.682Z,36.83
2022-12-16T15:14:19.913Z,39.27
2022-12-16T15:17:07.332Z,37.27
2022-12-16T15:20:03.387Z,35.60
2022-12-16T15:23:02.885Z,66.75
2022-12-16T15:25:49.044Z,46.03
2022-12-16T15:28:55.220Z,46.10
2022-12-16T15:31:40.537Z,47.63
2022-12-16T15:34:47.385Z,44.40
2022-12-16T15:37:41.625Z,43.10
2022-12-16T15:40:50.257Z,43.93
2022-12-16T15:43:48.211Z,44.27
2022-12-16T15:46:41.799Z,44.93
2022-12-16T15:49:38.215Z,44.97
2022-12-16T15:52:48.429Z,46.20
2022-12-16T15:55:46.117Z,42.73
2022-12-16T15:58:38.209Z,43.73
2022-12-16T16:01:25.792Z,41.37
2022-12-16T16:04:13.213Z,40.90
2022-12-16T16:07:04.183Z,41.43
2022-12-16T16:09:51.605Z,37.07
2022-12-16T16:12:38.461Z,42.43
2022-12-16T16:15:27.772Z,41.40
2022-12-16T16:18:15.592Z,41.67
2022-12-16T16:21:02.301Z,42.93
2022-12-16T16:23:48.100Z,47.67
2022-12-16T16:26:35.846Z,46.70
2022-12-16T16:29:27.442Z,44.83
2022-12-16T16:32:14.619Z,44.63
2022-12-16T16:34:59.948Z,43.10
2022-12-16T16:37:45.539Z,40.53
2022-12-16T16:40:39.498Z,38.60
2022-12-16T16:43:36.885Z,37.33
2022-12-16T16:46:32.269Z,41.13
2022-12-16T16:49:19.524Z,38.90
2022-12-16T16:52:05.166Z,40.97
2022-12-16T16:54:50.610Z,43.83
2022-12-16T16:57:35.958Z,43.00
2022-12-16T17:00:22.317Z,42.70
2022-12-16T17:03:07.792Z,46.23
2022-12-16T17:05:54.771Z,43.73
2022-12-16T17:08:40.272Z,46.67
2022-12-16T17:11:35.318Z,44.00
2022-12-16T17:14:20.971Z,38.30
2022-12-16T17:17:06.829Z,41.07
2022-12-16T17:19:52.245Z,37.87
2022-12-16T17:22:38.904Z,40.27
2022-12-16T17:25:25.776Z,40.63
2022-12-16T17:28:11.439Z,39.50
2022-12-16T17:30:56.741Z,41.80
2022-12-16T17:33:42.628Z,39.17
2022-12-16T17:36:32.049Z,38.50
2022-12-16T17:39:19.726Z,36.13
2022-12-16T17:42:05.267Z,38.10
2022-12-16T17:44:51.230Z,37.93
2022-12-16T17:47:37.218Z,39.27
2022-12-16T17:50:24.196Z,39.93
2022-12-16T17:53:12.904Z,41.30
2022-12-16T17:56:00.251Z,44.80
2022-12-16T17:58:49.900Z,49.77
2022-12-16T18:01:35.436Z,48.67
2022-12-16T18:04:21.845Z,46.23
2022-12-16T18:07:07.225Z,50.00
2022-12-16T18:09:52.832Z,51.20
2022-12-16T18:12:40.402Z,52.57
2022-12-16T18:15:26.372Z,49.23
2022-12-16T18:18:12.049Z,45.07
2022-12-16T18:20:57.306Z,47.43
2022-12-16T18:23:42.829Z,48.17
2022-12-16T18:26:31.616Z,50.37
2022-12-16T18:29:18.285Z,44.20
2022-12-16T18:32:03.841Z,48.33
2022-12-16T18:34:49.376Z,53.63
2022-12-16T18:37:34.954Z,50.77
2022-12-16T18:40:20.456Z,49.60
2022-12-16T18:43:05.796Z,49.23
2022-12-16T18:45:52.892Z,46.40
2022-12-16T18:48:49.746Z,46.80
2022-12-16T18:51:35.279Z,41.60
2022-12-16T18:54:20.924Z,39.93
2022-12-16T18:57:06.375Z,39.60
2022-12-16T19:00:06.411Z,36.67
2022-12-16T19:02:53.576Z,35.20
2022-12-16T19:05:39.325Z,38.87
2022-12-16T19:08:24.937Z,39.30
2022-12-16T19:11:14.698Z,38.87
2022-12-16T19:14:00.264Z,39.93
2022-12-16T19:16:45.899Z,41.73
2022-12-16T19:19:32.617Z,44.50
2022-12-16T19:22:18.146Z,46.07
2022-12-16T19:25:03.768Z,43.00
2022-12-16T19:27:49.196Z,44.30
2022-12-16T19:30:34.545Z,40.23
2022-12-16T19:33:19.890Z,38.80
2022-12-16T19:36:06.726Z,41.33
2022-12-16T19:38:52.169Z,48.40
2022-12-16T19:41:38.261Z,46.57
2022-12-16T19:44:24.050Z,45.03
2022-12-16T19:47:09.668Z,44.77
2022-12-16T19:49:56.077Z,43.27
2022-12-16T19:52:42.998Z,41.07
2022-12-16T19:55:28.435Z,38.57
2022-12-16T19:58:13.810Z,37.77
2022-12-16T20:00:59.457Z,43.03
2022-12-16T20:03:45.295Z,41.30
2022-12-16T20:06:30.585Z,41.83
2022-12-16T20:09:17.549Z,41.50
2022-12-16T20:12:03.151Z,42.60
2022-12-16T20:14:48.738Z,42.67
2022-12-16T20:17:34.288Z,43.93
2022-12-16T20:20:20.199Z,41.80
2022-12-16T20:23:05.618Z,39.23
2022-12-16T20:25:56.251Z,37.57
2022-12-16T20:28:42.293Z,37.17
2022-12-16T20:31:27.766Z,38.03
2022-12-16T20:34:14.269Z,49.53
2022-12-16T20:37:00.619Z,43.50
2022-12-16T20:39:52.819Z,42.37
2022-12-16T20:42:44.416Z,44.20
2022-12-16T20:45:30.137Z,41.53
2022-12-16T20:48:15.973Z,46.77
2022-12-16T20:51:01.764Z,39.07
2022-12-16T20:53:47.502Z,38.97
2022-12-16T20:56:33.112Z,43.90
2022-12-16T20:59:20.181Z,49.17
2022-12-16T21:05:10.821Z,45.33
2022-12-16T21:07:56.883Z,44.67
2022-12-16T21:10:42.631Z,48.77
2022-12-16T21:13:30.330Z,45.70
2022-12-16T21:16:18.160Z,43.93
2022-12-16T21:19:03.914Z,46.70
2022-12-16T21:21:49.179Z,42.17
2022-12-16T21:24:34.919Z,43.43
2022-12-16T21:27:20.936Z,38.67
2022-12-16T21:30:06.638Z,38.13
2022-12-16T21:32:53.467Z,39.30
2022-12-16T21:35:39.416Z,44.63
2022-12-16T21:38:27.305Z,41.30
2022-12-16T21:41:13.440Z,47.70
2022-12-16T21:43:59.728Z,45.43
2022-12-16T21:46:45.831Z,44.63
2022-12-16T21:49:32.530Z,44.80
2022-12-16T21:52:17.925Z,38.40
2022-12-16T21:55:03.791Z,42.37
2022-12-16T21:57:49.559Z,43.13
2022-12-16T22:00:35.951Z,47.03
2022-12-16T22:03:21.800Z,48.80
2022-12-16T22:06:09.550Z,44.43
2022-12-16T22:08:56.375Z,44.83
2022-12-16T22:11:41.974Z,47.47
2022-12-16T22:14:27.511Z,45.40
2022-12-16T22:17:13.098Z,43.40
2022-12-16T22:19:58.419Z,37.67
2022-12-16T22:22:45.548Z,35.27
2022-12-16T22:25:30.848Z,41.63
2022-12-16T22:28:16.516Z,38.63
2022-12-16T22:31:02.421Z,36.37
2022-12-16T22:33:50.432Z,39.67
2022-12-16T22:36:37.434Z,39.77
2022-12-16T22:39:24.246Z,43.30
2022-12-16T22:42:09.596Z,38.47
2022-12-16T22:44:56.502Z,42.27
2022-12-16T22:47:42.077Z,38.23
2022-12-16T22:50:27.732Z,38.30
2022-12-16T22:53:13.303Z,43.40
2022-12-16T22:56:02.130Z,39.70
2022-12-16T22:58:47.881Z,40.47
2022-12-16T23:01:33.210Z,40.63
2022-12-16T23:04:19.062Z,45.63
2022-12-16T23:07:04.383Z,48.80
2022-12-16T23:09:49.841Z,47.50
2022-12-16T23:12:36.769Z,44.83
2022-12-16T23:15:23.414Z,39.47
2022-12-16T23:18:09.144Z,39.00
2022-12-16T23:20:56.469Z,33.37
2022-12-16T23:23:42.541Z,33.60
2022-12-16T23:26:28.325Z,32.10
2022-12-16T23:29:14.961Z,34.67
2022-12-16T23:32:00.352Z,32.63
2022-12-16T23:34:46.361Z,36.53
2022-12-16T23:37:32.113Z,38.33
2022-12-16T23:40:16.802Z,36.50
2022-12-16T23:43:02.293Z,37.17
2022-12-16T23:45:49.421Z,35.83
2022-12-16T23:48:35.075Z,34.53
2022-12-16T23:51:20.569Z,26.70
2022-12-16T23:54:06.292Z,28.63
2022-12-16T23:57:03.374Z,33.70
2022-12-16T23:59:48.736Z,32.20
